Time;durP1;ratioP1;P1;durP2;ratioP2;P2;SDS_P1;SDS_P2;PMS_P1;PMS_P2;Temp;Humidity;BMP_temperature;BMP_pressure;BME280_temperature;BME280_humidity;BME280_pressure;Samples;Min_cycle;Max_cycle;Signal;HPM_P1;HPM_P2
2023/11/25 00:02:16;;;;;;;;;;;;;;;8.30;100.00;97246.22;4990293;28;20397;-72
2023/11/25 00:04:41;;;;;;;;;;;;;;;8.24;100.00;97236.53;4979037;28;19925;-72
2023/11/25 00:07:06;;;;;;;;;;;;;;;8.03;100.00;97248.16;4972239;28;19921;-72
2023/11/25 00:09:31;;;;;;;;;;;;;;;7.84;100.00;97247.84;5001368;28;20012;-72
2023/11/25 00:11:57;;;;;;;;;;;;;;;8.03;100.00;97231.44;4984168;28;19918;-72
2023/11/25 00:14:22;;;;;;;;;;;;;;;7.83;100.00;97235.09;4984172;28;19917;-71
2023/11/25 00:16:47;;;;;;;;;;;;;;;7.98;100.00;97229.78;4994042;28;20397;-72
2023/11/25 00:19:14;;;;;;;;;;;;;;;8.06;100.00;97231.50;4995111;28;20376;-72
2023/11/25 00:21:39;;;;;;;;;;;;;;;7.87;100.00;97237.97;4995093;28;20352;-72
2023/11/25 00:24:04;;;;;;;;;;;;;;;7.54;100.00;97208.75;4995096;28;19972;-72
2023/11/25 00:26:30;;;;;;;;;;;;;;;7.69;100.00;97216.19;4993735;28;19921;-72
2023/11/25 00:28:56;;;;;;;;;;;;;;;7.67;100.00;97215.75;4993568;28;19921;-72
2023/11/25 00:31:22;;;;;;;;;;;;;;;7.71;100.00;97199.13;4976283;28;19922;-72
2023/11/25 00:33:48;;;;;;;;;;;;;;;7.73;100.00;97202.34;4985748;28;20401;-72
2023/11/25 00:36:13;;;;;;;;;;;;;;;7.87;100.00;97197.00;4994263;28;19953;-72
2023/11/25 00:38:38;;;;;;;;;;;;;;;7.81;100.00;97189.34;4994884;28;19914;-72
2023/11/25 00:41:06;;;;;;;;;;;;;;;7.83;100.00;97186.97;4994244;28;19926;-72
2023/11/25 00:43:32;;;;;;;;;;;;;;;7.95;100.00;97197.91;4994462;28;19968;-72
2023/11/25 00:45:57;;;;;;;;;;;;;;;7.95;100.00;97180.44;4994737;28;20016;-72
2023/11/25 00:48:23;;;;;;;;;;;;;;;7.84;100.00;97178.28;4981938;28;19924;-72
2023/11/25 00:50:49;;;;;;;;;;;;;;;8.05;100.00;97167.84;4994399;28;20397;-72
2023/11/25 00:53:14;;;;;;;;;;;;;;;8.04;100.00;97167.06;4992520;28;19934;-72
2023/11/25 00:55:39;;;;;;;;;;;;;;;8.19;100.00;97145.75;4994581;28;20286;-72
2023/11/25 00:58:06;;;;;;;;;;;;;;;8.26;100.00;97162.59;4994424;28;19914;-72
2023/11/25 01:00:31;;;;;;;;;;;;;;;8.15;100.00;97161.63;4992935;28;19921;-71
2023/11/25 01:02:56;;;;;;;;;;;;;;;7.96;100.00;97138.31;4994476;28;19914;-72
2023/11/25 01:05:23;;;;;;;;;;;;;;;7.47;100.00;97133.53;4987508;28;19918;-72
2023/11/25 01:07:48;;;;;;;;;;;;;;;7.12;100.00;97129.75;4993611;28;20008;-71
2023/11/25 01:10:14;;;;;;;;;;;;;;;7.35;100.00;97142.88;4993599;28;20376;-72
2023/11/25 01:12:39;;;;;;;;;;;;;;;7.43;100.00;97116.78;4993075;28;19918;-71
2023/11/25 01:15:04;;;;;;;;;;;;;;;7.34;100.00;97136.50;4992104;28;20290;-71
2023/11/25 01:17:30;;;;;;;;;;;;;;;7.28;100.00;97127.66;4993986;28;19918;-72
2023/11/25 01:19:55;;;;;;;;;;;;;;;7.52;100.00;97120.09;4993927;28;19976;-71
2023/11/25 01:22:21;;;;;;;;;;;;;;;7.54;100.00;97120.56;4989436;28;19987;-72
2023/11/25 01:24:47;;;;;;;;;;;;;;;7.66;100.00;97125.09;4990217;28;19925;-72
2023/11/25 01:27:14;;;;;;;;;;;;;;;7.82;100.00;97122.19;4994067;28;19914;-72
2023/11/25 01:29:39;;;;;;;;;;;;;;;7.69;100.00;97112.44;4993969;28;20023;-71
2023/11/25 01:32:05;;;;;;;;;;;;;;;7.72;100.00;97112.50;4993316;28;19949;-71
2023/11/25 01:34:31;;;;;;;;;;;;;;;7.51;100.00;97106.59;4993165;28;20005;-71
2023/11/25 01:36:56;;;;;;;;;;;;;;;7.49;100.00;97081.91;4993994;28;19914;-71
2023/11/25 01:39:24;;;;;;;;;;;;;;;7.47;100.00;97061.19;4988182;28;19921;-71
2023/11/25 01:41:50;;;;;;;;;;;;;;;7.60;100.00;97076.50;4992626;28;19918;-71
2023/11/25 01:44:16;;;;;;;;;;;;;;;7.81;100.00;97064.09;4992158;28;20479;-71
2023/11/25 01:46:42;;;;;;;;;;;;;;;7.93;100.00;97072.22;4987089;28;19926;-72
2023/11/25 01:49:09;;;;;;;;;;;;;;;7.99;100.00;97058.78;4993471;28;19924;-71
2023/11/25 01:51:34;;;;;;;;;;;;;;;8.01;100.00;97065.59;4993049;28;19976;-72
2023/11/25 01:54:00;;;;;;;;;;;;;;;7.68;100.00;97033.72;4991508;28;20250;-71
2023/11/25 01:56:27;;;;;;;;;;;;;;;7.56;100.00;97011.69;4984127;28;19945;-71
2023/11/25 01:58:52;;;;;;;;;;;;;;;7.56;100.00;97042.28;4988860;28;20385;-71
2023/11/25 02:01:19;;;;;;;;;;;;;;;7.62;100.00;97024.09;4989003;28;20012;-71
2023/11/25 02:03:45;;;;;;;;;;;;;;;7.58;100.00;97012.09;4976172;28;19918;-72
2023/11/25 02:06:11;;;;;;;;;;;;;;;7.51;100.00;96995.31;4990253;28;20028;-71
2023/11/25 02:08:36;;;;;;;;;;;;;;;7.57;100.00;97011.31;4992017;28;20413;-71
2023/11/25 02:11:01;;;;;;;;;;;;;;;7.63;100.00;97003.44;4993271;28;19921;-72
2023/11/25 02:13:27;;;;;;;;;;;;;;;7.76;100.00;96994.88;4991172;28;19925;-71
2023/11/25 02:15:52;;;;;;;;;;;;;;;7.83;100.00;96992.16;4982894;28;20380;-72
2023/11/25 02:18:17;;;;;;;;;;;;;;;7.93;100.00;96999.84;4996278;28;19922;-72
2023/11/25 02:20:45;;;;;;;;;;;;;;;7.91;100.00;97002.22;4993067;28;19914;-72
2023/11/25 02:23:20;;;;;;;;;;;;;;;7.97;100.00;96997.13;4991548;28;19914;-72
2023/11/25 02:25:47;;;;;;;;;;;;;;;7.93;100.00;96996.28;4972183;28;20017;-72
2023/11/25 02:28:13;;;;;;;;;;;;;;;7.95;100.00;96991.91;4972309;28;20392;-72
2023/11/25 02:30:38;;;;;;;;;;;;;;;8.13;100.00;96992.16;4972931;28;20078;-72
2023/11/25 02:33:06;;;;;;;;;;;;;;;8.03;100.00;96980.88;4988612;28;19918;-72
2023/11/25 02:35:32;;;;;;;;;;;;;;;8.18;100.00;96971.50;4992082;28;19929;-72
2023/11/25 02:37:57;;;;;;;;;;;;;;;8.14;100.00;96979.03;4992336;28;19918;-72
2023/11/25 02:40:23;;;;;;;;;;;;;;;8.24;100.00;96972.78;4992431;28;19925;-72
2023/11/25 02:42:50;;;;;;;;;;;;;;;8.10;100.00;96961.50;4991793;28;19918;-72
2023/11/25 02:45:18;;;;;;;;;;;;;;;8.21;100.00;96947.69;4992270;28;20325;-72
2023/11/25 02:47:44;;;;;;;;;;;;;;;8.04;100.00;96949.09;4989927;28;19968;-71
2023/11/25 02:50:10;;;;;;;;;;;;;;;7.96;100.00;96948.19;4992453;28;20012;-72
2023/11/25 02:52:36;;;;;;;;;;;;;;;7.69;100.00;96945.50;4983221;28;19918;-71
2023/11/25 02:55:01;;;;;;;;;;;;;;;7.93;100.00;96951.75;4990366;28;20333;-72
2023/11/25 02:57:28;;;;;;;;;;;;;;;8.13;100.00;96935.66;4990489;28;19953;-72
2023/11/25 02:59:55;;;;;;;;;;;;;;;7.83;100.00;96928.16;4991195;28;19981;-72
2023/11/25 03:02:20;;;;;;;;;;;;;;;7.74;100.00;96920.09;4992245;28;20408;-71
2023/11/25 03:04:47;;;;;;;;;;;;;;;7.81;100.00;96934.13;4992373;28;19917;-72
2023/11/25 03:07:13;;;;;;;;;;;;;;;7.77;100.00;96910.19;4991374;28;20444;-72
2023/11/25 03:09:39;;;;;;;;;;;;;;;7.73;100.00;96891.50;4989682;28;19945;-71
2023/11/25 03:12:05;;;;;;;;;;;;;;;7.58;100.00;96907.19;4991787;28;19918;-71
2023/11/25 03:14:31;;;;;;;;;;;;;;;7.72;100.00;96901.03;4990615;28;19925;-71
2023/11/25 03:16:57;;;;;;;;;;;;;;;7.90;100.00;96883.72;4991030;28;19918;-72
2023/11/25 03:19:23;;;;;;;;;;;;;;;8.03;100.00;96889.03;4991093;28;19918;-72
2023/11/25 03:21:50;;;;;;;;;;;;;;;8.04;100.00;96882.28;4992280;28;19918;-72
2023/11/25 03:24:16;;;;;;;;;;;;;;;8.14;100.00;96870.44;4992175;28;19921;-72
2023/11/25 03:26:43;;;;;;;;;;;;;;;8.11;100.00;96860.88;4980180;28;19918;-71
2023/11/25 03:29:09;;;;;;;;;;;;;;;7.80;100.00;96840.69;4972729;28;19926;-71
2023/11/25 03:31:40;;;;;;;;;;;;;;;7.51;100.00;96845.13;4980018;28;20384;-72
2023/11/25 03:34:05;;;;;;;;;;;;;;;7.62;100.00;96829.34;4991223;28;19925;-72
2023/11/25 03:36:31;;;;;;;;;;;;;;;7.54;100.00;96838.78;4991862;28;19925;-72
2023/11/25 03:38:56;;;;;;;;;;;;;;;7.67;100.00;96854.03;4990808;28;20289;-72
2023/11/25 03:41:23;;;;;;;;;;;;;;;7.76;100.00;96847.38;4988861;28;19961;-72
2023/11/25 03:43:48;;;;;;;;;;;;;;;7.82;100.00;96848.63;4990947;28;19921;-72
2023/11/25 03:46:13;;;;;;;;;;;;;;;7.84;100.00;96846.25;4992401;28;19976;-72
2023/11/25 03:48:39;;;;;;;;;;;;;;;7.93;100.00;96835.63;4994609;28;19952;-72
2023/11/25 03:51:05;;;;;;;;;;;;;;;7.80;100.00;96834.31;4994486;28;20005;-71
2023/11/25 03:53:31;;;;;;;;;;;;;;;7.86;100.00;96828.00;4995890;28;19914;-71
2023/11/25 03:55:59;;;;;;;;;;;;;;;7.65;100.00;96828.59;4988166;28;19928;-72
2023/11/25 03:58:25;;;;;;;;;;;;;;;7.58;100.00;96820.16;4986383;28;19918;-71
2023/11/25 04:00:50;;;;;;;;;;;;;;;7.47;100.00;96814.47;4994360;28;19965;-71
2023/11/25 04:03:15;;;;;;;;;;;;;;;7.47;100.00;96819.22;4995687;28;20308;-71
2023/11/25 04:05:41;;;;;;;;;;;;;;;7.40;100.00;96806.84;4977851;28;20320;-72
2023/11/25 04:08:06;;;;;;;;;;;;;;;7.35;100.00;96812.72;4988357;28;19917;-72
2023/11/25 04:10:31;;;;;;;;;;;;;;;7.40;100.00;96823.53;4992779;28;20474;-71
2023/11/25 04:12:57;;;;;;;;;;;;;;;7.25;100.00;96819.75;4995047;28;19917;-71
2023/11/25 04:15:22;;;;;;;;;;;;;;;7.20;100.00;96835.97;4980351;28;20361;-72
2023/11/25 04:17:48;;;;;;;;;;;;;;;7.14;100.00;96827.97;4975927;28;19914;-71
2023/11/25 04:20:13;;;;;;;;;;;;;;;7.36;100.00;96828.25;4987083;28;19922;-71
2023/11/25 04:22:42;;;;;;;;;;;;;;;7.30;100.00;96819.44;4995247;28;19984;-71
2023/11/25 04:25:08;;;;;;;;;;;;;;;7.25;100.00;96822.53;4994513;28;20009;-71
2023/11/25 04:27:33;;;;;;;;;;;;;;;7.01;100.00;96824.63;4994232;28;19922;-71
2023/11/25 04:29:59;;;;;;;;;;;;;;;6.88;100.00;96821.28;4988160;28;19925;-72
2023/11/25 04:32:24;;;;;;;;;;;;;;;6.95;100.00;96830.88;4975573;28;19918;-71
2023/11/25 04:34:50;;;;;;;;;;;;;;;6.90;100.00;96828.44;4979228;28;19930;-71
2023/11/25 04:37:16;;;;;;;;;;;;;;;6.92;100.00;96837.19;4994997;28;20457;-71
2023/11/25 04:39:41;;;;;;;;;;;;;;;6.97;100.00;96822.97;4994383;28;20389;-71
2023/11/25 04:42:08;;;;;;;;;;;;;;;7.21;100.00;96812.56;4992936;28;19917;-71
2023/11/25 04:44:34;;;;;;;;;;;;;;;7.09;100.00;96814.38;4993765;28;19914;-72
2023/11/25 04:46:59;;;;;;;;;;;;;;;7.05;100.00;96816.34;4986456;28;19922;-71
2023/11/25 04:49:24;;;;;;;;;;;;;;;7.22;100.00;96814.97;4993460;28;19914;-72
2023/11/25 04:51:50;;;;;;;;;;;;;;;7.27;100.00;96813.84;4993388;28;19920;-71
2023/11/25 04:54:15;;;;;;;;;;;;;;;7.30;100.00;96833.34;4991910;28;19949;-72
2023/11/25 04:56:40;;;;;;;;;;;;;;;7.51;100.00;96822.88;4974850;28;19922;-71
2023/11/25 04:59:06;;;;;;;;;;;;;;;7.63;100.00;96805.09;4974610;28;19914;-72
2023/11/25 05:01:32;;;;;;;;;;;;;;;7.80;100.00;96817.59;4975074;28;19949;-72
2023/11/25 05:03:57;;;;;;;;;;;;;;;7.87;100.00;96817.69;4974172;28;19925;-72
2023/11/25 05:06:22;;;;;;;;;;;;;;;7.80;100.00;96810.06;4988464;28;19929;-72
2023/11/25 05:08:47;;;;;;;;;;;;;;;7.30;100.00;96813.06;4992485;28;19925;-72
2023/11/25 05:11:13;;;;;;;;;;;;;;;7.32;100.00;96816.28;4993371;28;20392;-72
2023/11/25 05:13:38;;;;;;;;;;;;;;;7.22;100.00;96816.94;4993007;28;20078;-72
2023/11/25 05:16:05;;;;;;;;;;;;;;;7.23;100.00;96826.88;4994449;28;19918;-73
2023/11/25 05:18:30;;;;;;;;;;;;;;;7.11;100.00;96817.59;4993403;28;19976;-73
2023/11/25 05:20:56;;;;;;;;;;;;;;;7.19;100.00;96817.69;4989099;28;20358;-73
2023/11/25 05:23:22;;;;;;;;;;;;;;;7.10;100.00;96813.22;4987609;28;20000;-73
2023/11/25 05:25:47;;;;;;;;;;;;;;;7.17;100.00;96831.97;4976636;28;20012;-73
2023/11/25 05:28:12;;;;;;;;;;;;;;;7.07;100.00;96821.53;4974583;28;20373;-73
2023/11/25 05:30:37;;;;;;;;;;;;;;;7.01;100.00;96823.81;5004998;28;19925;-73
2023/11/25 05:33:03;;;;;;;;;;;;;;;7.10;100.00;96817.97;4993659;28;19918;-73
2023/11/25 05:35:28;;;;;;;;;;;;;;;7.15;100.00;96812.09;4993811;28;19930;-72
2023/11/25 05:37:53;;;;;;;;;;;;;;;7.02;100.00;96805.97;4986079;28;19925;-72
2023/11/25 05:40:19;;;;;;;;;;;;;;;6.87;100.00;96791.88;4987227;28;19922;-72
2023/11/25 05:42:47;;;;;;;;;;;;;;;6.94;100.00;96802.31;4993046;28;19924;-72
2023/11/25 05:45:13;;;;;;;;;;;;;;;6.97;100.00;96789.63;4992202;28;19922;-73
2023/11/25 05:47:38;;;;;;;;;;;;;;;6.88;100.00;96779.59;4992730;28;19925;-73
2023/11/25 05:50:04;;;;;;;;;;;;;;;6.87;100.00;96777.97;4991811;28;20000;-73
2023/11/25 05:52:29;;;;;;;;;;;;;;;7.15;100.00;96790.66;4993516;28;20359;-74
2023/11/25 05:54:55;;;;;;;;;;;;;;;7.11;100.00;96780.66;4988383;28;19918;-74
2023/11/25 05:57:21;;;;;;;;;;;;;;;7.18;100.00;96777.19;4982662;28;19922;-74
2023/11/25 05:59:46;;;;;;;;;;;;;;;7.18;100.00;96799.41;4992891;28;19914;-73
2023/11/25 06:02:12;;;;;;;;;;;;;;;7.17;100.00;96793.03;4991557;28;19933;-73
2023/11/25 06:04:37;;;;;;;;;;;;;;;7.32;100.00;96796.03;4991471;28;19980;-73
2023/11/25 06:07:02;;;;;;;;;;;;;;;7.45;100.00;96791.81;4989035;28;19918;-74
2023/11/25 06:09:27;;;;;;;;;;;;;;;7.32;100.00;96787.69;4989326;28;20393;-74
2023/11/25 06:11:53;;;;;;;;;;;;;;;7.35;100.00;96789.69;4977570;28;20389;-73
2023/11/25 06:14:19;;;;;;;;;;;;;;;7.32;100.00;96788.47;4991539;28;19969;-74
2023/11/25 06:16:45;;;;;;;;;;;;;;;7.47;100.00;96783.88;4990801;28;19922;-74
2023/11/25 06:19:11;;;;;;;;;;;;;;;7.48;100.00;96777.13;4992335;28;19922;-73
2023/11/25 06:21:37;;;;;;;;;;;;;;;7.54;100.00;96785.94;4992421;28;19918;-73
2023/11/25 06:24:04;;;;;;;;;;;;;;;7.71;100.00;96788.09;4989775;28;20012;-73
2023/11/25 06:26:29;;;;;;;;;;;;;;;7.82;100.00;96795.75;4983294;28;19968;-74
2023/11/25 06:28:55;;;;;;;;;;;;;;;7.92;100.00;96797.84;4984241;28;20396;-72
2023/11/25 06:31:21;;;;;;;;;;;;;;;7.95;100.00;96796.28;4992870;28;19957;-71
2023/11/25 06:33:46;;;;;;;;;;;;;;;8.04;100.00;96804.31;4991040;28;19918;-73
2023/11/25 06:36:12;;;;;;;;;;;;;;;8.21;100.00;96792.56;4990547;28;20474;-73
2023/11/25 06:38:37;;;;;;;;;;;;;;;8.00;100.00;96787.56;4990811;28;19918;-71
2023/11/25 06:41:03;;;;;;;;;;;;;;;7.96;100.00;96793.13;4987260;28;19918;-72
2023/11/25 06:43:29;;;;;;;;;;;;;;;8.16;100.00;96804.03;4987956;28;19925;-72
2023/11/25 06:45:54;;;;;;;;;;;;;;;8.25;100.00;96790.59;4985856;28;19921;-71
2023/11/25 06:48:23;;;;;;;;;;;;;;;8.25;100.00;96792.56;4986686;28;19917;-71
2023/11/25 06:50:49;;;;;;;;;;;;;;;8.42;100.00;96794.72;4990135;28;20309;-71
2023/11/25 06:53:14;;;;;;;;;;;;;;;8.54;100.00;96785.25;4992540;28;19914;-69
2023/11/25 06:55:41;;;;;;;;;;;;;;;8.64;100.00;96791.31;4989558;28;20021;-70
2023/11/25 06:58:11;;;;;;;;;;;;;;;8.60;100.00;96776.56;4990918;28;19936;-71
2023/11/25 07:00:45;;;;;;;;;;;;;;;8.69;100.00;96779.81;4985212;28;19976;-70
2023/11/25 07:03:11;;;;;;;;;;;;;;;8.70;100.00;96779.41;4989715;28;19925;-70
2023/11/25 07:05:37;;;;;;;;;;;;;;;8.86;100.00;96769.94;4989857;28;19917;-70
2023/11/25 07:08:03;;;;;;;;;;;;;;;8.94;100.00;96771.56;4989565;28;19914;-69
2023/11/25 07:10:34;;;;;;;;;;;;;;;9.04;100.00;96769.25;4990930;28;19914;-70
2023/11/25 07:12:59;;;;;;;;;;;;;;;9.02;100.00;96777.19;4988785;28;19924;-71
2023/11/25 07:15:25;;;;;;;;;;;;;;;9.00;100.00;96780.38;4987860;28;20379;-69
2023/11/25 07:17:50;;;;;;;;;;;;;;;9.04;100.00;96785.97;4989290;28;20103;-69
2023/11/25 07:20:18;;;;;;;;;;;;;;;8.94;100.00;96793.88;4988314;28;19918;-69
2023/11/25 07:22:43;;;;;;;;;;;;;;;8.94;100.00;96779.16;4994045;28;19914;-69
2023/11/25 07:25:11;;;;;;;;;;;;;;;9.04;100.00;96786.75;4995061;28;19918;-68
2023/11/25 07:27:40;;;;;;;;;;;;;;;9.06;100.00;96792.75;5003707;28;19925;-69
2023/11/25 07:30:06;;;;;;;;;;;;;;;9.18;100.00;96786.03;5014654;28;19913;-69
2023/11/25 07:32:32;;;;;;;;;;;;;;;9.27;100.00;96797.63;5015865;28;19940;-72
2023/11/25 07:34:57;;;;;;;;;;;;;;;9.30;100.00;96807.22;5000570;28;19922;-70
2023/11/25 07:37:22;;;;;;;;;;;;;;;9.40;100.00;96820.38;4975994;28;19957;-70
2023/11/25 07:39:48;;;;;;;;;;;;;;;9.44;100.00;96816.84;4976472;28;20294;-71
2023/11/25 07:42:14;;;;;;;;;;;;;;;9.49;100.00;96816.44;4976587;28;19918;-70
2023/11/25 07:44:39;;;;;;;;;;;;;;;9.54;100.00;96816.88;4976423;28;19914;-69
2023/11/25 07:47:04;;;;;;;;;;;;;;;9.58;100.00;96825.25;4976412;28;19910;-70
2023/11/25 07:49:30;;;;;;;;;;;;;;;9.48;100.00;96826.00;4975982;28;19914;-70
2023/11/25 07:51:55;;;;;;;;;;;;;;;9.07;100.00;96836.19;4974972;28;19925;-70
2023/11/25 07:54:20;;;;;;;;;;;;;;;9.07;100.00;96838.97;4976017;28;19914;-70
2023/11/25 07:56:47;;;;;;;;;;;;;;;9.24;100.00;96845.03;4975983;28;19925;-69
2023/11/25 07:59:13;;;;;;;;;;;;;;;9.24;100.00;96840.25;4975948;28;19915;-70
2023/11/25 08:01:38;;;;;;;;;;;;;;;9.24;100.00;96845.03;4991030;28;19921;-69
2023/11/25 08:04:04;;;;;;;;;;;;;;;9.27;100.00;96850.63;4976143;28;19914;-69
2023/11/25 08:06:29;;;;;;;;;;;;;;;9.15;100.00;96850.16;4976110;28;19921;-69
2023/11/25 08:08:55;;;;;;;;;;;;;;;9.22;100.00;96850.19;4979187;28;19918;-70
2023/11/25 08:11:27;;;;;;;;;;;;;;;9.06;100.00;96865.25;4976153;28;19914;-69
2023/11/25 08:13:53;;;;;;;;;;;;;;;9.02;100.00;96872.00;4975948;28;20412;-70
2023/11/25 08:16:18;;;;;;;;;;;;;;;8.59;100.00;96878.84;4990569;28;19918;-70
2023/11/25 08:18:44;;;;;;;;;;;;;;;8.28;100.00;96881.72;4975440;28;19915;-69
2023/11/25 08:21:10;;;;;;;;;;;;;;;8.34;100.00;96884.97;4975859;28;20005;-68
2023/11/25 08:23:35;;;;;;;;;;;;;;;7.97;100.00;96872.66;4983159;28;20013;-70
2023/11/25 08:26:00;;;;;;;;;;;;;;;7.82;100.00;96870.91;4992252;28;19918;-70
2023/11/25 08:28:26;;;;;;;;;;;;;;;7.56;100.00;96872.59;4993401;28;19913;-69
2023/11/25 08:30:52;;;;;;;;;;;;;;;7.34;100.00;96874.28;4995071;28;20383;-70
2023/11/25 08:33:18;;;;;;;;;;;;;;;7.20;100.00;96861.00;4982904;28;19918;-70
2023/11/25 08:35:43;;;;;;;;;;;;;;;7.14;100.00;96860.53;4973100;28;19965;-71
2023/11/25 08:38:09;;;;;;;;;;;;;;;7.19;100.00;96862.19;4973362;28;20376;-71
2023/11/25 08:40:35;;;;;;;;;;;;;;;7.24;100.00;96870.19;4972842;28;20302;-74
2023/11/25 08:43:08;;;;;;;;;;;;;;;7.15;100.00;96862.94;4972969;28;19918;-73
2023/11/25 08:45:33;;;;;;;;;;;;;;;7.06;100.00;96872.72;4979708;28;20308;-72
2023/11/25 08:47:59;;;;;;;;;;;;;;;7.01;100.00;96868.28;4994856;28;19976;-72
2023/11/25 08:50:24;;;;;;;;;;;;;;;7.00;100.00;96877.81;4993225;28;19921;-72
2023/11/25 08:52:50;;;;;;;;;;;;;;;7.04;100.00;96878.66;4994866;28;19968;-73
2023/11/25 08:55:18;;;;;;;;;;;;;;;7.08;100.00;96879.50;4993805;28;19967;-70
2023/11/25 08:57:43;;;;;;;;;;;;;;;7.13;100.00;96883.94;4978521;28;19962;-72
2023/11/25 09:00:15;;;;;;;;;;;;;;;7.26;100.00;96885.31;4973896;28;19918;-72
2023/11/25 09:02:44;;;;;;;;;;;;;;;7.30;100.00;96888.16;4975357;28;20008;-72
2023/11/25 09:05:10;;;;;;;;;;;;;;;7.40;100.00;96892.25;4975088;28;20005;-72
2023/11/25 09:07:36;;;;;;;;;;;;;;;7.50;100.00;96901.94;4975084;28;20377;-72
2023/11/25 09:10:04;;;;;;;;;;;;;;;7.06;100.00;96875.50;4975035;28;20008;-72
2023/11/25 09:12:30;;;;;;;;;;;;;;;6.85;100.00;96890.69;4974981;28;19937;-72
2023/11/25 09:14:55;;;;;;;;;;;;;;;6.82;100.00;96888.66;4989745;28;19922;-72
2023/11/25 09:17:20;;;;;;;;;;;;;;;6.64;100.00;96888.38;4989785;28;19914;-72
2023/11/25 09:19:47;;;;;;;;;;;;;;;6.53;100.00;96880.66;4974760;28;19914;-71
2023/11/25 09:22:12;;;;;;;;;;;;;;;6.62;100.00;96876.81;4974858;28;20353;-71
2023/11/25 09:24:38;;;;;;;;;;;;;;;6.62;100.00;96888.75;4989619;28;19914;-71
2023/11/25 09:27:04;;;;;;;;;;;;;;;6.42;100.00;96886.03;4974787;28;19914;-71
2023/11/25 09:29:29;;;;;;;;;;;;;;;6.54;100.00;96889.78;4974116;28;19981;-71
2023/11/25 09:31:54;;;;;;;;;;;;;;;6.59;100.00;96887.50;4974647;28;19949;-71
2023/11/25 09:34:20;;;;;;;;;;;;;;;6.42;100.00;96888.00;4989440;28;19997;-71
2023/11/25 09:36:45;;;;;;;;;;;;;;;6.25;100.00;96873.44;4974531;28;19986;-71
2023/11/25 09:39:11;;;;;;;;;;;;;;;6.17;100.00;96877.28;4973244;28;19991;-71
2023/11/25 09:41:37;;;;;;;;;;;;;;;6.15;100.00;96868.50;4974395;28;20350;-71
2023/11/25 09:44:05;;;;;;;;;;;;;;;6.26;100.00;96875.03;4973996;28;19952;-70
2023/11/25 09:46:31;;;;;;;;;;;;;;;6.18;100.00;96874.13;4974176;28;19922;-70
2023/11/25 09:48:57;;;;;;;;;;;;;;;6.21;100.00;96869.81;4974413;28;19914;-71
2023/11/25 09:51:24;;;;;;;;;;;;;;;6.30;100.00;96873.16;4972705;28;20467;-71
2023/11/25 09:53:51;;;;;;;;;;;;;;;6.40;100.00;96871.72;4974263;28;20004;-71
2023/11/25 09:56:17;;;;;;;;;;;;;;;6.51;100.00;96858.00;4973841;28;20009;-71
2023/11/25 09:58:42;;;;;;;;;;;;;;;6.54;100.00;96865.59;4974096;28;20445;-71
2023/11/25 10:01:12;;;;;;;;;;;;;;;6.59;100.00;96872.81;4973617;28;19925;-71
2023/11/25 10:03:38;;;;;;;;;;;;;;;6.49;100.00;96865.91;4974019;28;19937;-71
2023/11/25 10:06:04;;;;;;;;;;;;;;;6.68;100.00;96848.34;4973953;28;19956;-71
2023/11/25 10:08:29;;;;;;;;;;;;;;;6.72;100.00;96856.75;4974044;28;20508;-71
2023/11/25 10:11:00;;;;;;;;;;;;;;;6.81;100.00;96860.06;4973778;28;19921;-71
2023/11/25 10:13:30;;;;;;;;;;;;;;;6.78;100.00;96841.38;4972645;28;19914;-71
2023/11/25 10:15:55;;;;;;;;;;;;;;;6.84;100.00;96834.31;4973943;28;20398;-68
2023/11/25 10:18:20;;;;;;;;;;;;;;;6.87;100.00;96836.31;4973620;28;19989;-68
2023/11/25 10:20:47;;;;;;;;;;;;;;;6.71;100.00;96842.06;4972098;28;19918;-68
2023/11/25 10:23:20;;;;;;;;;;;;;;;6.73;100.00;96825.00;4973749;28;19937;-67
2023/11/25 10:25:45;;;;;;;;;;;;;;;6.83;100.00;96835.47;4973660;28;19914;-64
2023/11/25 10:28:14;;;;;;;;;;;;;;;6.81;100.00;96832.28;4972321;28;19914;-67
2023/11/25 10:30:40;;;;;;;;;;;;;;;6.80;100.00;96829.88;4973580;28;19915;-67
2023/11/25 10:33:07;;;;;;;;;;;;;;;6.70;100.00;96828.53;4973480;28;20464;-67
2023/11/25 10:35:34;;;;;;;;;;;;;;;6.60;100.00;96833.56;4973345;28;19922;-67
2023/11/25 10:37:59;;;;;;;;;;;;;;;6.67;100.00;96826.50;4973595;28;19914;-67
2023/11/25 10:40:27;;;;;;;;;;;;;;;6.56;100.00;96823.56;4973298;28;20402;-66
2023/11/25 10:42:53;;;;;;;;;;;;;;;6.50;100.00;96820.28;4987470;28;19926;-68
2023/11/25 10:45:26;;;;;;;;;;;;;;;6.49;100.00;96809.56;4990124;28;20009;-66
2023/11/25 10:47:53;;;;;;;;;;;;;;;6.53;100.00;96810.44;4990216;28;19928;-70
2023/11/25 10:50:18;;;;;;;;;;;;;;;6.51;100.00;96810.00;4984567;28;19929;-68
2023/11/25 10:52:45;;;;;;;;;;;;;;;6.49;100.00;96807.59;4992401;28;19922;-67
2023/11/25 10:55:12;;;;;;;;;;;;;;;6.49;100.00;96799.25;4988708;28;20075;-67
2023/11/25 10:57:37;;;;;;;;;;;;;;;6.48;100.00;96807.97;4988149;28;20396;-67
2023/11/25 11:00:10;;;;;;;;;;;;;;;6.50;100.00;96803.63;4990089;28;19944;-68
2023/11/25 11:02:43;;;;;;;;;;;;;;;6.47;100.00;96801.59;4990130;28;19914;-66
2023/11/25 11:05:09;;;;;;;;;;;;;;;6.51;100.00;96807.22;4987312;28;19921;-66
2023/11/25 11:07:43;;;;;;;;;;;;;;;6.59;100.00;96795.84;4989839;28;20425;-67
2023/11/25 11:10:11;;;;;;;;;;;;;;;6.65;100.00;96795.53;4990050;28;20334;-67
2023/11/25 11:12:46;;;;;;;;;;;;;;;6.78;100.00;96794.13;4989775;28;19918;-68
2023/11/25 11:15:14;;;;;;;;;;;;;;;6.82;100.00;96794.97;4989713;28;20025;-67
2023/11/25 11:17:47;;;;;;;;;;;;;;;6.81;100.00;96787.81;4988279;28;19988;-67
2023/11/25 11:20:13;;;;;;;;;;;;;;;6.80;100.00;96789.00;4989965;28;20285;-68
2023/11/25 11:22:45;;;;;;;;;;;;;;;6.86;100.00;96776.38;4985667;28;19918;-67
2023/11/25 11:25:12;;;;;;;;;;;;;;;6.91;100.00;96766.13;4982066;28;19918;-67
2023/11/25 11:27:55;;;;;;;;;;;;;;;6.86;100.00;96762.47;4979083;28;19921;-67
2023/11/25 11:30:23;;;;;;;;;;;;;;;6.85;100.00;96766.44;4991135;28;19925;-67
2023/11/25 11:32:49;;;;;;;;;;;;;;;6.83;100.00;96774.34;4990855;28;19918;-67
2023/11/25 11:35:17;;;;;;;;;;;;;;;6.72;100.00;96765.06;4991122;28;19918;-67
2023/11/25 11:37:47;;;;;;;;;;;;;;;6.69;100.00;96758.28;4981538;28;20009;-67
2023/11/25 11:40:12;;;;;;;;;;;;;;;6.68;100.00;96762.22;4975464;28;19921;-67
2023/11/25 11:42:39;;;;;;;;;;;;;;;6.74;100.00;96765.50;4974999;28;19918;-67
2023/11/25 11:45:15;;;;;;;;;;;;;;;6.84;100.00;96753.72;4990344;28;19922;-67
2023/11/25 11:48:03;;;;;;;;;;;;;;;6.74;100.00;96752.41;4990327;28;20316;-67
2023/11/25 11:50:31;;;;;;;;;;;;;;;6.82;100.00;96744.19;4989786;28;19918;-67
2023/11/25 11:52:59;;;;;;;;;;;;;;;6.92;100.00;96739.94;4986415;28;19926;-67
2023/11/25 11:55:40;;;;;;;;;;;;;;;6.97;100.00;96734.84;4978046;28;19918;-67
2023/11/25 11:58:06;;;;;;;;;;;;;;;7.03;100.00;96718.63;4973861;28;19969;-67
2023/11/25 12:00:50;;;;;;;;;;;;;;;7.18;100.00;96716.81;4985403;28;19965;-67
2023/11/25 12:03:16;;;;;;;;;;;;;;;7.24;100.00;96712.50;4975481;28;19918;-67
2023/11/25 12:05:42;;;;;;;;;;;;;;;7.26;100.00;96706.59;4990760;28;19914;-67
2023/11/25 12:08:07;;;;;;;;;;;;;;;7.35;100.00;96715.41;4992714;28;19914;-67
2023/11/25 12:10:33;;;;;;;;;;;;;;;7.32;100.00;96713.38;4994528;28;19918;-67
2023/11/25 12:12:58;;;;;;;;;;;;;;;7.38;100.00;96720.22;4989789;28;19922;-67
2023/11/25 12:15:23;;;;;;;;;;;;;;;7.44;100.00;96724.25;4981296;28;19929;-67
2023/11/25 12:17:49;;;;;;;;;;;;;;;7.40;100.00;96717.03;4994180;28;20068;-67
2023/11/25 12:20:15;;;;;;;;;;;;;;;7.41;100.00;96725.00;4994406;28;19921;-67
2023/11/25 12:22:41;;;;;;;;;;;;;;;7.57;100.00;96735.09;4993109;28;19921;-68
2023/11/25 12:25:13;;;;;;;;;;;;;;;7.62;100.00;96729.19;4978868;28;20373;-68
2023/11/25 12:27:40;;;;;;;;;;;;;;;7.63;100.00;96714.09;4993661;28;19918;-68
2023/11/25 12:30:06;;;;;;;;;;;;;;;7.72;100.00;96711.00;4985767;28;19918;-68
2023/11/25 12:32:31;;;;;;;;;;;;;;;7.61;100.00;96705.34;4992785;28;20376;-68
2023/11/25 12:34:57;;;;;;;;;;;;;;;7.66;100.00;96709.75;5008660;28;20012;-67
2023/11/25 12:37:22;;;;;;;;;;;;;;;7.67;100.00;96703.81;4993835;28;19921;-68
2023/11/25 12:39:48;;;;;;;;;;;;;;;7.55;100.00;96701.31;4989156;28;19917;-68
2023/11/25 12:42:14;;;;;;;;;;;;;;;7.38;100.00;96709.09;4980359;28;19927;-67
2023/11/25 12:44:49;;;;;;;;;;;;;;;7.41;100.00;96694.41;4990494;28;19968;-68